EST,Max TemperatureF,Mean TemperatureF,Min TemperatureF,Max Dew PointF,MeanDew PointF,Min DewpointF,Max Humidity, Mean Humidity, Min Humidity, Max Sea Level PressureIn, Mean Sea Level PressureIn, Min Sea Level PressureIn, Max VisibilityMiles, Mean VisibilityMiles, Min VisibilityMiles, Max Wind SpeedMPH, Mean Wind SpeedMPH, Max Gust SpeedMPH,PrecipitationIn, CloudCover, Events, WindDirDegrees
2012-11-1,55,50,46,41,38,37,71,63,55,29.59,29.56,29.54,10,10,10,10,7,16,0.00,7,,247
2012-11-2,55,50,46,40,36,31,68,57,42,29.70,29.61,29.57,10,10,10,12,6,20,0.00,7,,300
2012-11-3,54,48,43,34,31,28,71,53,40,29.89,29.79,29.70,10,10,10,16,9,28,0.00,3,,312
2012-11-4,55,48,41,31,30,28,65,54,40,29.97,29.93,29.88,10,10,10,9,7,,0.00,0,,320
2012-11-5,46,40,33,29,23,19,64,50,39,30.18,30.04,29.96,10,10,10,16,9,25,0.00,3,,345
2012-11-6,44,35,26,23,19,15,81,54,32,30.25,30.19,30.11,10,10,10,13,5,,0.00,1,,20
2012-11-7,39,36,32,31,27,20,93,79,52,30.09,29.83,29.69,10,3,0,28,18,40,0.06,7,Fog-Snow,7
2012-11-8,45,39,33,31,30,28,89,71,53,29.85,29.71,29.67,10,7,1,23,16,32,0.08,8,Rain-Snow,340
2012-11-9,55,46,37,34,25,16,60,45,25,30.18,30.02,29.86,10,10,10,13,9,21,0.00,1,,324
2012-11-10,55,50,44,43,38,32,80,64,49,30.44,30.31,30.18,10,10,9,8,3,,0.00,4,,292
2012-11-11,63,52,42,51,46,38,93,78,59,30.51,30.48,30.44,10,8,4,8,2,,0.00,1,,191
2012-11-12,64,54,44,57,50,43,100,89,70,30.48,30.43,30.22,10,4,0,12,2,,0.00,5,Fog,198
2012-11-13,61,49,37,57,45,28,90,76,53,30.44,30.26,30.14,10,10,4,14,5,23,0.09,6,Rain,326
2012-11-14,48,42,35,28,26,23,72,57,41,30.51,30.47,30.44,10,10,10,15,8,22,0.00,1,,1
2012-11-15,45,38,32,29,26,23,76,62,48,30.47,30.39,30.30,10,10,10,13,7,,0.00,3,,16
2012-11-16,48,40,32,28,26,24,76,59,39,30.44,30.33,30.29,10,10,10,14,6,,0.00,3,,5
2012-11-17,53,44,34,30,28,24,75,59,40,30.65,30.57,30.44,10,10,10,17,9,21,0.00,0,,16
2012-11-18,51,42,33,36,30,26,79,66,52,30.69,30.64,30.60,10,10,10,13,8,,0.00,1,,24
2012-11-19,50,42,33,35,31,27,82,72,56,30.58,30.42,30.27,10,10,10,16,9,,0.00,3,,7
2012-11-20,51,42,32,34,31,27,85,72,50,30.24,30.17,30.12,10,10,10,13,6,,0.00,3,,6
2012-11-21,55,46,37,32,30,27,73,59,41,30.25,30.20,30.15,10,10,10,13,8,,0.00,2,,9
2012-11-22,54,44,34,42,34,30,89,73,57,30.27,30.22,30.14,10,9,4,12,7,,0.00,0,,15
2012-11-23,54,42,30,48,38,27,93,84,69,30.12,29.93,29.67,10,6,0,8,1,,0.00,4,Fog-Rain,198
2012-11-24,51,44,37,46,25,17,83,48,33,29.78,29.69,29.63,10,10,10,18,9,30,0.02,4,,293
2012-11-25,43,40,37,25,21,18,55,48,40,29.94,29.86,29.78,10,10,10,13,9,23,0.00,5,,275
2012-11-26,50,39,28,25,23,20,78,52,33,30.27,30.09,29.94,10,10,10,10,7,21,0.00,3,,276
2012-11-27,39,34,28,36,32,23,93,84,65,30.32,30.26,30.20,10,6,2,10,4,,0.26,8,Rain-Snow,13
2012-11-28,43,39,35,34,27,22,93,67,45,30.24,30.19,30.14,10,10,8,13,8,18,0.00,5,,334
2012-11-29,46,40,34,27,25,23,70,56,44,30.33,30.28,30.24,10,10,10,15,6,22,0.00,1,,261
2012-11-30,46,38,30,30,25,20,82,61,47,30.50,30.41,30.30,10,10,6,14,5,,0.00,5,,30